Latest Coastal Weather Observations for Proserpine

IDQ60701

Issued at 9:55 am EST Wednesday 3 September 2014 (issued every 10 minutes, with the page automatically refreshed every 10 minutes)

About coastal observations | Map of coastal stations | Coastal observations for QLD | Marine services | Other Formats
Station Details ID: 033247 Name: PROSERPINE AIRPORT Lat: -20.49 Lon: 148.56 Height: 19.7 m
Data from the previous 72 hours. | See also: Recent months at Proserpine
Date/Time
EST
Temp

°C
Wind Pressure Rain
since 9am
mm
Weather Cloud Vis
km
Sea
Height
m
Swell
Dir
 
Speed
knots
Gust
knots
hPa Trend Height
m
Period
s
Dir
03/09:30am 23.1 SE 12 17 1017.4 - 0.0 - - 10 - - - -
03/09:00am 21.3 S 12 15 1017.3 - 0.0 Fine Mostly clear 30 - - - -
03/08:30am 20.0 SSE 7 10 1017.5 - 0.0 - - 10 - - - -
03/08:00am 17.1 S 7 11 1017.3 - 0.0 - - 10 - - - -
03/07:30am 15.2 S 6 9 1017.2 - 0.0 - - 10 - - - -
03/07:00am 11.4 S 1 5 1016.8 - 0.0 - - 10 - - - -
03/06:49am 10.1 CALM 0 4 1016.7 - 0.0 - - 10 - - - -
03/06:30am 9.9 CALM 0 0 1016.5 - 0.0 - - 0.5 - - - -
03/06:00am 10.3 CALM 0 0 1015.7 - 0.0 - - 0.5 - - - -
03/05:30am 10.7 CALM 0 0 1015.5 - 0.0 - - 0.7 - - - -
03/05:04am 11.3 CALM 0 2 1015.3 - 0.0 - - 6 - - - -
03/05:00am 12.0 S 1 3 1015.3 - 0.0 - - 10 - - - -
03/04:53am 10.9 S 4 6 1015.2 - 0.0 - - 10 - - - -
03/04:30am 11.0 SSE 5 6 1015.0 - 0.0 - Partly cloudy 4 - - - -
03/04:19am 10.7 SSW 4 5 1014.9 - 0.0 - Partly cloudy 0.4 - - - -
03/04:00am 12.1 SE 1 4 1014.7 - 0.0 - Partly cloudy 0.3 - - - -
03/03:42am 12.6 SE 4 5 1014.7 - 0.0 - Partly cloudy 0.2 - - - -
03/03:30am 13.3 SSE 3 5 1014.6 - 0.0 - - 0.7 - - - -
03/03:19am 12.2 CALM 0 6 1014.7 - 0.0 - - 5 - - - -
03/03:07am 12.9 CALM 0 0 1014.6 - 0.0 - - 9 - - - -
03/03:00am 13.0 CALM 0 0 1014.5 - 0.0 - - 7 - - - -
03/02:44am 13.7 CALM 0 0 1014.7 - 0.0 - - 3 - - - -
03/02:30am 14.5 CALM 0 1 1014.8 - 0.0 - - 10 - - - -
03/02:00am 15.5 CALM 0 0 1014.7 - 0.0 - - 10 - - - -
03/01:30am 15.9 NNW 4 5 1014.9 - 0.0 - - 10 - - - -
03/01:00am 17.7 N 7 9 1015.0 - 0.0 - - 10 - - - -
03/12:30am 18.7 NW 10 12 1015.1 - 0.0 - - 10 - - - -
03/12:00am 19.2 NW 10 14 1015.1 - 0.0 - - 10 - - - -
 
Date/Time
EST
Temp

°C
Wind Pressure Rain
since 9am
mm
Weather Cloud Vis
km
Sea
Height
m
Swell
Dir
 
Speed
knots
Gust
knots
hPa Trend Height
m
Period
s
Dir
02/11:30pm 18.7 NW 8 11 1015.2 - 0.0 - - 10 - - - -
02/11:00pm 18.9 NW 9 13 1015.2 - 0.0 - - 10 - - - -
02/10:30pm 18.8 NW 8 11 1015.0 - 0.0 - - 10 - - - -
02/10:00pm 18.9 NNW 8 11 1014.8 - 0.0 - - 10 - - - -
02/09:30pm 18.5 NNW 7 10 1014.9 - 0.0 - - 10 - - - -
02/09:00pm 18.2 NNW 6 8 1014.7 - 0.0 - - 10 - - - -
02/08:30pm 19.0 NNW 8 12 1014.6 - 0.0 - - 10 - - - -
02/08:00pm 19.4 NNW 9 12 1014.5 - 0.0 - - 10 - - - -
02/07:30pm 19.7 NNW 9 13 1014.4 - 0.0 - - 10 - - - -
02/07:00pm 20.2 NW 11 14 1014.1 - 0.0 - - 10 - - - -
02/06:30pm 20.7 NNW 8 11 1013.7 - 0.0 - - 10 - - - -
02/06:00pm 21.9 NNW 8 11 1013.2 - 0.0 - - 10 - - - -
02/05:30pm 23.4 NNW 13 18 1013.1 - 0.0 - - 10 - - - -
02/05:00pm 24.9 NNW 12 17 1012.9 - 0.0 - - 10 - - - -
02/04:30pm 26.3 NNW 12 20 1012.6 - 0.0 - - 10 - - - -
02/04:00pm 27.1 N 11 15 1012.3 - 0.0 - - 10 - - - -
02/03:30pm 27.7 N 13 17 1012.1 - 0.0 - - 10 - - - -
02/03:00pm 28.6 N 12 18 1011.9 - 0.0 Fine Mostly clear 30 - - - -
02/02:30pm 29.6 N 11 17 1012.4 - 0.0 - - 10 - - - -
02/02:00pm 29.8 NE 5 11 1012.9 - 0.0 - - 10 - - - -
02/01:30pm 29.9 N 5 10 1013.6 - 0.0 - - 10 - - - -
02/01:00pm 29.2 NNW 6 11 1014.3 - 0.0 - - 10 - - - -
02/12:30pm 29.2 NNW 7 12 1014.9 - 0.0 - - 10 - - - -
02/12:00pm 27.7 N 8 12 1015.6 - 0.0 - - 10 - - - -
02/11:30am 26.8 NNW 7 11 1016.4 - 0.0 - - 10 - - - -
02/11:00am 26.2 N 5 10 1017.0 - 0.0 - - 10 - - - -
02/10:30am 24.6 NNW 7 12 1017.6 - 0.0 - - 10 - - - -
02/10:00am 23.9 NW 6 11 1018.1 - 0.0 - - 10 - - - -
02/09:30am 22.4 NNW 5 8 1018.4 - 0.0 - - 10 - - - -
02/09:00am 20.8 NNW 3 5 1018.6 - 0.0 Fine Clear 30 - - - -
02/08:30am 18.2 CALM 0 0 1018.6 - 0.0 - - 10 - - - -
02/08:00am 15.2 N 2 4 1018.5 - 0.0 - - 10 - - - -
02/07:30am 12.9 CALM 0 0 1018.5 - 0.0 - - 10 - - - -
02/07:00am 10.6 CALM 0 0 1018.3 - 0.0 - - 10 - - - -
02/06:30am 8.7 CALM 0 0 1018.2 - 0.0 - - 10 - - - -
02/06:00am 8.2 SW 4 5 1018.1 - 0.0 - - 10 - - - -
02/05:30am 8.6 CALM 0 0 1017.6 - 0.0 - - 10 - - - -
02/05:00am 8.2 CALM 0 0 1017.7 - 0.0 - - 10 - - - -
02/04:30am 9.1 CALM 0 0 1017.7 - 0.0 - - 10 - - - -
02/04:00am 9.3 CALM 0 0 1017.6 - 0.0 - - 10 - - - -
02/03:30am 9.9 CALM 0 0 1017.4 - 0.0 - - 10 - - - -
02/03:00am 9.9 CALM 0 0 1017.7 - 0.0 - - 10 - - - -
02/02:30am 10.1 NW 2 4 1018.1 - 0.0 - - 10 - - - -
02/02:27am 10.5 NNW 2 4 1018.1 - 0.0 - - 10 - - - -
02/02:00am 11.0 N 2 4 1018.3 - 0.0 - - 2 - - - -
02/01:56am 10.9 N 3 4 1018.3 - 0.0 - - 6 - - - -
02/01:30am 10.8 CALM 0 0 1018.5 - 0.0 - - 10 - - - -
02/01:00am 11.2 SW 1 3 1018.6 - 0.0 - - 10 - - - -
02/12:30am 10.6 WSW 3 4 1018.9 - 0.0 - - 10 - - - -
02/12:00am 11.7 SW 3 4 1018.7 - 0.0 - - 10 - - - -
 
Date/Time
EST
Temp

°C
Wind Pressure Rain
since 9am
mm
Weather Cloud Vis
km
Sea
Height
m
Swell
Dir
 
Speed
knots
Gust
knots
hPa Trend Height
m
Period
s
Dir
01/11:30pm 12.0 SW 3 4 1018.5 - 0.0 - - 10 - - - -
01/11:00pm 12.6 SW 3 4 1018.7 - 0.0 - - 10 - - - -
01/10:30pm 12.3 SW 3 3 1018.7 - 0.0 - - 10 - - - -
01/10:00pm 12.3 SW 3 4 1018.5 - 0.0 - - 10 - - - -
01/09:30pm 14.0 SSW 4 4 1018.5 - 0.0 - - 10 - - - -
01/09:00pm 13.9 SSW 4 5 1018.4 - 0.0 - - 10 - - - -
01/08:30pm 14.1 SSW 3 4 1018.5 - 0.0 - - 10 - - - -
01/08:00pm 15.7 CALM 0 0 1018.2 - 0.0 - - 10 - - - -
01/07:30pm 16.1 SSW 2 3 1017.8 - 0.0 - - 10 - - - -
01/07:00pm 17.5 SSE 3 4 1017.6 - 0.0 - - 10 - - - -
01/06:30pm 18.2 SE 6 7 1017.3 - 0.0 - - 10 - - - -
01/06:00pm 19.5 ESE 7 8 1016.8 - 0.0 - - 10 - - - -
01/05:30pm 21.3 ESE 7 10 1016.6 - 0.0 - - 10 - - - -
01/05:00pm 22.4 E 9 14 1016.2 - 0.0 - - 10 - - - -
01/04:30pm 22.8 ESE 11 15 1016.0 - 0.0 - - 10 - - - -
01/04:00pm 23.8 E 11 16 1015.9 - 0.0 - - 10 - - - -
01/03:30pm 24.6 E 11 15 1016.0 - 0.0 - - 10 - - - -
01/03:00pm 24.6 E 10 14 1016.2 - 0.0 Fine Mostly clear 30 - - - -
01/02:30pm 24.5 E 11 15 1016.4 - 0.0 - - 10 - - - -
01/02:00pm 25.1 E 11 16 1016.7 - 0.0 - - 10 - - - -
01/01:30pm 24.7 E 10 16 1017.2 - 0.0 - - 10 - - - -
01/01:00pm 24.8 E 10 15 1017.6 - 0.0 - - 10 - - - -
01/12:30pm 25.0 E 11 16 1018.1 - 0.0 - - 10 - - - -
01/12:00pm 25.2 ENE 9 14 1018.3 - 0.0 - - 10 - - - -
01/11:30am 23.8 ENE 6 11 1019.1 - 0.0 - - 10 - - - -
01/11:00am 24.0 E 7 10 1019.1 - 0.0 - - 10 - - - -
01/10:30am 23.9 ESE 8 12 1019.3 - 0.0 - - 10 - - - -
01/10:00am 22.3 E 7 12 1019.4 - 0.0 - - 10 - - - -
01/09:30am 22.0 E 5 9 1019.9 - 0.0 - - 10 - - - -
01/09:00am 20.4 S 4 6 1019.8 - 0.0 Fine Clear 30 - - - -
01/08:30am 18.4 S 4 5 1019.8 - 0.0 - - 10 - - - -
01/08:00am 15.0 S 1 3 1019.4 - 0.0 - - 10 - - - -
01/07:30am 12.7 SSW 4 6 1019.0 - 0.0 - - 10 - - - -
01/07:00am 9.3 CALM 0 0 1019.0 - 0.0 - - 10 - - - -
01/06:30am 7.0 CALM 0 0 1018.6 - 0.0 - - 10 - - - -
01/06:00am 6.7 CALM 0 0 1018.0 - 0.0 - - 10 - - - -
01/05:30am 7.6 CALM 0 0 1017.9 - 0.0 - - 10 - - - -
01/05:00am 7.3 CALM 0 0 1017.6 - 0.0 - - 10 - - - -
01/04:30am 7.9 CALM 0 0 1017.5 - 0.0 - - 7 - - - -
01/04:26am 7.9 CALM 0 0 1017.5 - 0.0 - - 7 - - - -
01/04:00am 8.0 CALM 0 0 1017.8 - 0.0 - - 1 - - - -
01/03:56am 8.0 CALM 0 0 1017.7 - 0.0 - - 4 - - - -
01/03:30am 8.0 CALM 0 0 1017.7 - 0.0 - - 10 - - - -
01/03:00am 8.7 CALM 0 0 1017.5 - 0.0 - - 10 - - - -
01/02:30am 9.7 CALM 0 0 1017.7 - 0.0 - - 10 - - - -
01/02:00am 10.2 CALM 0 0 1018.0 - 0.0 - - 10 - - - -
01/01:30am 9.8 CALM 0 0 1018.0 - 0.0 - - 10 - - - -
01/01:00am 11.9 CALM 0 0 1017.8 - 0.0 - - 10 - - - -
01/12:30am 11.5 CALM 0 0 1018.1 - 0.0 - - 10 - - - -
01/12:00am 10.1 CALM 0 0 1018.3 - 0.0 - - 10 - - - -
 
Date/Time
EST
Temp

°C
Wind Pressure Rain
since 9am
mm
Weather Cloud Vis
km
Sea
Height
m
Swell
Dir
 
Speed
knots
Gust
knots
hPa Trend Height
m
Period
s
Dir
31/11:30pm 12.2 CALM 0 0 1018.2 - 0.0 - - 10 - - - -
31/11:00pm 11.7 CALM 0 0 1018.5 - 0.0 - - 10 - - - -
31/10:30pm 11.1 CALM 0 0 1018.5 - 0.0 - - 10 - - - -
31/10:00pm 11.5 CALM 0 0 1018.7 - 0.0 - - 10 - - - -
31/09:30pm 11.9 CALM 0 0 1018.6 - 0.0 - - 10 - - - -
31/09:00pm 12.5 CALM 0 0 1018.5 - 0.0 - - 10 - - - -
31/08:30pm 13.0 CALM 0 2 1018.2 - 0.0 - - 10 - - - -
31/08:00pm 13.6 SW 3 4 1017.9 - 0.0 - - 10 - - - -
31/07:30pm 15.1 S 3 3 1017.6 - 0.0 - - 10 - - - -
31/07:00pm 17.0 ESE 1 3 1017.2 - 0.0 - - 10 - - - -
31/06:30pm 18.1 ESE 6 7 1016.8 - 0.0 - - 10 - - - -
31/06:00pm 19.3 ESE 7 8 1016.4 - 0.0 - - 10 - - - -
31/05:30pm 21.4 ESE 7 9 1016.0 - 0.0 - - 10 - - - -
31/05:00pm 22.6 E 10 14 1015.7 - 0.0 - - 10 - - - -
31/04:30pm 23.8 E 11 16 1015.4 - 0.0 - - 10 - - - -
31/04:00pm 24.2 E 12 17 1015.3 - 0.0 - - 10 - - - -
31/03:30pm 24.9 E 11 17 1015.2 - 0.0 - - 10 - - - -
31/03:00pm 25.3 E 12 16 1015.5 - 0.0 Fine - 30 - - - -
31/02:30pm 25.5 E 13 18 1015.6 - 0.0 - - 10 - - - -
31/02:00pm 25.3 E 12 18 1016.0 - 0.0 - - 10 - - - -
31/01:30pm 25.9 E 12 17 1016.4 - 0.0 - - 10 - - - -
31/01:00pm 25.1 E 11 17 1016.8 - 0.0 - - 10 - - - -
31/12:30pm 25.3 ESE 11 18 1017.2 - 0.0 - - 10 - - - -
31/12:00pm 25.1 SE 13 17 1017.7 - 0.0 - - 10 - - - -
31/11:30am 25.7 ESE 10 17 1017.9 - 0.0 - - 10 - - - -
31/11:00am 24.8 ESE 9 15 1018.3 - 0.0 - - 10 - - - -
31/10:30am 23.9 SE 7 12 1018.6 - 0.0 - - 10 - - - -
31/10:00am 22.8 ESE 6 10 1019.0 - 0.0 - - 10 - - - -

Other Formats:

Comma delimited format used in spreadsheet applications
http://www.bom.gov.au/fwo/IDQ60701/IDQ60701.94365.axf

JavaScript Object Notation format (JSON) in row-major order
http://www.bom.gov.au/fwo/IDQ60701/IDQ60701.94365.json